RJA125 OJAI-EDDF
Flight info
| Callsign | RJA125 |
|---|---|
| Flight time | 4h 22m |
| Altitude | 34000 |
| Route | MUVIN L53 GOBRI J10 NAT H14 MERVA P42 DESPO DCT VESAR UL619 MUT UB545 SEHIR/N0455F360 UB545 OKLAM UL619 OSVEL UQ23 OSDAN UQ26 TUDBU Q26 ETUBA T226 NAVOD DCT PANZU DCT ELDET DCT BACAM DCT INVED DCT ARSIN DCT SUBEN DCT AKINI T161 DEBHI SPESA5B |
| Aircraft | A320/M-SDE3FGHIRWY/LB1 |
Departure
| Time | 2026-05-06 07:47 |
|---|---|
| Airport | Queen Alia International Airport (OJAI) |
Arrival
| Time | 2026-05-06 12:10 |
|---|---|
| Airport | Frankfurt Main Airport (EDDF) |
| Time | Latitude | Longitude | Altitude | Speed | Heading |
|---|---|---|---|---|---|
| 2026-05-06 07:17 | 31.72086 | 35.98946 | 2412 ft | 0 kts | 350° |
| 2026-05-06 07:34 | 31.72069 | 35.98949 | 2411 ft | 4 kts | 350° |
| 2026-05-06 07:34 | 31.72042 | 35.98954 | 2411 ft | 4 kts | 351° |
| 2026-05-06 07:35 | 31.72019 | 35.98957 | 2411 ft | 4 kts | 11° |
| 2026-05-06 07:35 | 31.72000 | 35.98942 | 2411 ft | 4 kts | 69° |
| 2026-05-06 07:35 | 31.71994 | 35.98920 | 2411 ft | 1 kts | 80° |
| 2026-05-06 07:35 | 31.71994 | 35.98916 | 2411 ft | 0 kts | 80° |
| 2026-05-06 07:38 | 31.71995 | 35.98920 | 2411 ft | 1 kts | 80° |
| 2026-05-06 07:38 | 31.71999 | 35.98951 | 2411 ft | 4 kts | 80° |
| 2026-05-06 07:38 | 31.72005 | 35.98994 | 2411 ft | 6 kts | 80° |
| 2026-05-06 07:39 | 31.72014 | 35.99053 | 2411 ft | 8 kts | 80° |
| 2026-05-06 07:39 | 31.72026 | 35.99130 | 2411 ft | 11 kts | 77° |
| 2026-05-06 07:39 | 31.72052 | 35.99218 | 2411 ft | 13 kts | 68° |
| 2026-05-06 07:39 | 31.72076 | 35.99324 | 2411 ft | 15 kts | 80° |
| 2026-05-06 07:40 | 31.72094 | 35.99447 | 2411 ft | 15 kts | 79° |
| 2026-05-06 07:40 | 31.72109 | 35.99546 | 2411 ft | 12 kts | 80° |
| 2026-05-06 07:40 | 31.72147 | 35.99602 | 2411 ft | 10 kts | 352° |
| 2026-05-06 07:40 | 31.72223 | 35.99587 | 2411 ft | 12 kts | 350° |
| 2026-05-06 07:41 | 31.72314 | 35.99569 | 2411 ft | 14 kts | 351° |
| 2026-05-06 07:41 | 31.72419 | 35.99549 | 2411 ft | 16 kts | 351° |
| 2026-05-06 07:41 | 31.72538 | 35.99527 | 2411 ft | 18 kts | 351° |
| 2026-05-06 07:41 | 31.72671 | 35.99501 | 2411 ft | 20 kts | 351° |
| 2026-05-06 07:42 | 31.72735 | 35.99490 | 2411 ft | 5 kts | 5° |
| 2026-05-06 07:42 | 31.72763 | 35.99521 | 2411 ft | 7 kts | 68° |
| 2026-05-06 07:42 | 31.72772 | 35.99584 | 2411 ft | 9 kts | 81° |
| 2026-05-06 07:42 | 31.72782 | 35.99663 | 2411 ft | 11 kts | 81° |
| 2026-05-06 07:43 | 31.72796 | 35.99759 | 2411 ft | 13 kts | 79° |
| 2026-05-06 07:43 | 31.72814 | 35.99872 | 2411 ft | 15 kts | 81° |
| 2026-05-06 07:43 | 31.72831 | 36.00001 | 2411 ft | 17 kts | 79° |
| 2026-05-06 07:43 | 31.72853 | 36.00146 | 2411 ft | 19 kts | 81° |
| 2026-05-06 07:44 | 31.72876 | 36.00308 | 2411 ft | 21 kts | 80° |
| 2026-05-06 07:44 | 31.72902 | 36.00484 | 2411 ft | 23 kts | 80° |
| 2026-05-06 07:44 | 31.72930 | 36.00676 | 2411 ft | 23 kts | 81° |
| 2026-05-06 07:44 | 31.72947 | 36.00763 | 2411 ft | 9 kts | 54° |
| 2026-05-06 07:45 | 31.73009 | 36.00789 | 2411 ft | 11 kts | 351° |
| 2026-05-06 07:45 | 31.73087 | 36.00775 | 2411 ft | 10 kts | 351° |
| 2026-05-06 07:45 | 31.73167 | 36.00760 | 2411 ft | 13 kts | 351° |
| 2026-05-06 07:45 | 31.73218 | 36.00741 | 2411 ft | 4 kts | 283° |
| 2026-05-06 07:46 | 31.73213 | 36.00715 | 2411 ft | 5 kts | 260° |
| 2026-05-06 07:46 | 31.73213 | 36.00710 | 2411 ft | 0 kts | 260° |
| 2026-05-06 07:46 | 31.73208 | 36.00675 | 2411 ft | 20 kts | 260° |
| 2026-05-06 07:47 | 31.73142 | 36.00237 | 2411 ft | 87 kts | 262° |
| 2026-05-06 07:47 | 31.73012 | 35.99297 | 2412 ft | 144 kts | 260° |
| 2026-05-06 07:47 | 31.72817 | 35.97977 | 2567 ft | 171 kts | 259° |
| 2026-05-06 07:47 | 31.72622 | 35.96599 | 3134 ft | 173 kts | 259° |
| 2026-05-06 07:48 | 31.72478 | 35.95661 | 3533 ft | 172 kts | 258° |
| 2026-05-06 07:48 | 31.72260 | 35.94275 | 3996 ft | 173 kts | 259° |
| 2026-05-06 07:48 | 31.72056 | 35.92845 | 4287 ft | 187 kts | 260° |
| 2026-05-06 07:48 | 31.71848 | 35.91297 | 4658 ft | 196 kts | 261° |
| 2026-05-06 07:49 | 31.71635 | 35.89677 | 5048 ft | 206 kts | 261° |
| 2026-05-06 07:49 | 31.71388 | 35.87984 | 5423 ft | 218 kts | 261° |
| 2026-05-06 07:49 | 31.71100 | 35.86106 | 5786 ft | 234 kts | 261° |
| 2026-05-06 07:49 | 31.70807 | 35.84110 | 6248 ft | 249 kts | 261° |
| 2026-05-06 07:50 | 31.70511 | 35.82053 | 6730 ft | 261 kts | 262° |
| 2026-05-06 07:50 | 31.70202 | 35.79922 | 7359 ft | 267 kts | 261° |
| 2026-05-06 07:50 | 31.69878 | 35.77702 | 8098 ft | 269 kts | 261° |
| 2026-05-06 07:50 | 31.69573 | 35.75489 | 8793 ft | 271 kts | 265° |
| 2026-05-06 07:51 | 31.69692 | 35.73279 | 9437 ft | 274 kts | 286° |
| 2026-05-06 07:51 | 31.70602 | 35.71321 | 10062 ft | 278 kts | 311° |
| 2026-05-06 07:51 | 31.72301 | 35.69806 | 10789 ft | 283 kts | 326° |
| 2026-05-06 07:51 | 31.74013 | 35.68631 | 11401 ft | 286 kts | 326° |
| 2026-05-06 07:52 | 31.75742 | 35.67446 | 11992 ft | 289 kts | 325° |
| 2026-05-06 07:52 | 31.77465 | 35.66194 | 12564 ft | 291 kts | 322° |
| 2026-05-06 07:52 | 31.78929 | 35.64583 | 12934 ft | 287 kts | 302° |
| 2026-05-06 07:52 | 31.79558 | 35.63174 | 13104 ft | 292 kts | 288° |
| 2026-05-06 07:53 | 31.80358 | 35.59998 | 13400 ft | 310 kts | 282° |
| 2026-05-06 07:53 | 31.80903 | 35.57469 | 13619 ft | 324 kts | 283° |
| 2026-05-06 07:53 | 31.81308 | 35.55672 | 13755 ft | 334 kts | 283° |
| 2026-05-06 07:53 | 31.81955 | 35.52997 | 13988 ft | 346 kts | 284° |
| 2026-05-06 07:54 | 31.82733 | 35.50060 | 14515 ft | 350 kts | 287° |
| 2026-05-06 07:54 | 31.83601 | 35.47182 | 15028 ft | 351 kts | 287° |
| 2026-05-06 07:54 | 31.84435 | 35.44464 | 15175 ft | 352 kts | 287° |
| 2026-05-06 07:54 | 31.85273 | 35.41754 | 15171 ft | 352 kts | 288° |
| 2026-05-06 07:55 | 31.86165 | 35.39042 | 15168 ft | 352 kts | 289° |
| 2026-05-06 07:55 | 31.87104 | 35.36295 | 15166 ft | 351 kts | 289° |
| 2026-05-06 07:55 | 31.88009 | 35.33669 | 15164 ft | 352 kts | 289° |
| 2026-05-06 07:55 | 31.88967 | 35.30890 | 15164 ft | 352 kts | 289° |
| 2026-05-06 07:56 | 31.89887 | 35.28216 | 15163 ft | 352 kts | 289° |
| 2026-05-06 07:56 | 31.90829 | 35.25478 | 15155 ft | 352 kts | 289° |
| 2026-05-06 07:56 | 31.91762 | 35.22766 | 15152 ft | 352 kts | 289° |
| 2026-05-06 07:56 | 31.92683 | 35.20090 | 15153 ft | 352 kts | 289° |
| 2026-05-06 07:57 | 31.93605 | 35.17407 | 15160 ft | 352 kts | 290° |
| 2026-05-06 07:57 | 31.94209 | 35.15652 | 15157 ft | 351 kts | 289° |
| 2026-05-06 07:57 | 31.95161 | 35.12875 | 15150 ft | 351 kts | 289° |
| 2026-05-06 07:57 | 31.96073 | 35.10205 | 15146 ft | 351 kts | 289° |
| 2026-05-06 07:58 | 31.96997 | 35.07495 | 15142 ft | 351 kts | 289° |
| 2026-05-06 07:58 | 31.97910 | 35.04822 | 15141 ft | 351 kts | 289° |
| 2026-05-06 07:58 | 31.98831 | 35.02118 | 15142 ft | 351 kts | 289° |
| 2026-05-06 07:58 | 31.99761 | 34.99378 | 15137 ft | 352 kts | 290° |
| 2026-05-06 07:59 | 32.00665 | 34.96698 | 15131 ft | 352 kts | 290° |
| 2026-05-06 07:59 | 32.01565 | 34.94010 | 15138 ft | 352 kts | 289° |
| 2026-05-06 07:59 | 32.02472 | 34.91280 | 15133 ft | 353 kts | 289° |
| 2026-05-06 07:59 | 32.03354 | 34.88625 | 15135 ft | 352 kts | 289° |
| 2026-05-06 08:00 | 32.04261 | 34.85899 | 15135 ft | 352 kts | 289° |
| 2026-05-06 08:00 | 32.05177 | 34.83138 | 15134 ft | 352 kts | 289° |
| 2026-05-06 08:00 | 32.06131 | 34.80348 | 15128 ft | 353 kts | 293° |
| 2026-05-06 08:00 | 32.07428 | 34.77984 | 15297 ft | 358 kts | 309° |
| 2026-05-06 08:01 | 32.09356 | 34.76082 | 15752 ft | 366 kts | 326° |
| 2026-05-06 08:01 | 32.11736 | 34.74922 | 16243 ft | 374 kts | 340° |
| 2026-05-06 08:01 | 32.14282 | 34.74175 | 16711 ft | 378 kts | 343° |
| 2026-05-06 08:01 | 32.16865 | 34.73492 | 17164 ft | 381 kts | 343° |
| 2026-05-06 08:02 | 32.19520 | 34.72759 | 17623 ft | 383 kts | 342° |
| 2026-05-06 08:02 | 32.22257 | 34.71930 | 18085 ft | 385 kts | 341° |
| 2026-05-06 08:02 | 32.24818 | 34.71114 | 18512 ft | 387 kts | 340° |
| 2026-05-06 08:02 | 32.27459 | 34.70264 | 18938 ft | 390 kts | 340° |
| 2026-05-06 08:03 | 32.30165 | 34.69406 | 19364 ft | 392 kts | 340° |
| 2026-05-06 08:03 | 32.32880 | 34.68563 | 19794 ft | 395 kts | 340° |
| 2026-05-06 08:03 | 32.35554 | 34.67737 | 20205 ft | 397 kts | 340° |
| 2026-05-06 08:03 | 32.38239 | 34.66903 | 20597 ft | 399 kts | 340° |
| 2026-05-06 08:04 | 32.40135 | 34.66313 | 20864 ft | 401 kts | 340° |
| 2026-05-06 08:04 | 32.42841 | 34.65468 | 21249 ft | 403 kts | 340° |
| 2026-05-06 08:04 | 32.45592 | 34.64607 | 21633 ft | 405 kts | 340° |
| 2026-05-06 08:04 | 32.48364 | 34.63743 | 22001 ft | 407 kts | 340° |
| 2026-05-06 08:05 | 32.51108 | 34.62884 | 22354 ft | 409 kts | 339° |
| 2026-05-06 08:05 | 32.53898 | 34.62009 | 22685 ft | 411 kts | 339° |
| 2026-05-06 08:05 | 32.56686 | 34.61134 | 23002 ft | 414 kts | 339° |
| 2026-05-06 08:05 | 32.59480 | 34.60261 | 23328 ft | 416 kts | 339° |
| 2026-05-06 08:06 | 32.62283 | 34.59382 | 23654 ft | 417 kts | 339° |
| 2026-05-06 08:06 | 32.65103 | 34.58495 | 23966 ft | 419 kts | 339° |
| 2026-05-06 08:06 | 32.67963 | 34.57596 | 24275 ft | 421 kts | 339° |
| 2026-05-06 08:06 | 32.70805 | 34.56698 | 24582 ft | 423 kts | 339° |
| 2026-05-06 08:07 | 32.73651 | 34.55807 | 24868 ft | 424 kts | 339° |
| 2026-05-06 08:07 | 32.76363 | 34.54956 | 25114 ft | 426 kts | 339° |
| 2026-05-06 08:07 | 32.79265 | 34.54254 | 25348 ft | 432 kts | 346° |
| 2026-05-06 08:07 | 32.82261 | 34.53878 | 25615 ft | 436 kts | 348° |
| 2026-05-06 08:08 | 32.85265 | 34.53622 | 25854 ft | 437 kts | 350° |
| 2026-05-06 08:08 | 32.88331 | 34.53384 | 26060 ft | 439 kts | 349° |
| 2026-05-06 08:08 | 32.91398 | 34.53135 | 26279 ft | 441 kts | 349° |
| 2026-05-06 08:08 | 32.94555 | 34.52857 | 26517 ft | 442 kts | 348° |
| 2026-05-06 08:09 | 32.97622 | 34.52552 | 26777 ft | 444 kts | 349° |
| 2026-05-06 08:09 | 33.00704 | 34.52236 | 27029 ft | 445 kts | 348° |
| 2026-05-06 08:09 | 33.03921 | 34.51912 | 27293 ft | 447 kts | 349° |
| 2026-05-06 08:09 | 33.07022 | 34.51614 | 27555 ft | 448 kts | 349° |
| 2026-05-06 08:10 | 33.10178 | 34.51317 | 27811 ft | 450 kts | 349° |
| 2026-05-06 08:10 | 33.13312 | 34.51024 | 28068 ft | 451 kts | 349° |
| 2026-05-06 08:10 | 33.16442 | 34.50725 | 28312 ft | 452 kts | 348° |
| 2026-05-06 08:10 | 33.19580 | 34.50417 | 28563 ft | 453 kts | 349° |
| 2026-05-06 08:11 | 33.22726 | 34.50109 | 28781 ft | 454 kts | 349° |
| 2026-05-06 08:11 | 33.25883 | 34.49804 | 29013 ft | 456 kts | 349° |
| 2026-05-06 08:11 | 33.29049 | 34.49500 | 29255 ft | 457 kts | 349° |
| 2026-05-06 08:11 | 33.32216 | 34.49195 | 29540 ft | 456 kts | 349° |
| 2026-05-06 08:12 | 33.35382 | 34.48891 | 29843 ft | 455 kts | 349° |
| 2026-05-06 08:12 | 33.38539 | 34.48591 | 30159 ft | 454 kts | 349° |
| 2026-05-06 08:12 | 33.41690 | 34.48289 | 30430 ft | 453 kts | 349° |
| 2026-05-06 08:12 | 33.44861 | 34.47980 | 30727 ft | 452 kts | 348° |
| 2026-05-06 08:13 | 33.48045 | 34.47667 | 30946 ft | 452 kts | 349° |
| 2026-05-06 08:13 | 33.51179 | 34.47363 | 31221 ft | 452 kts | 348° |
| 2026-05-06 08:13 | 33.54304 | 34.47058 | 31498 ft | 451 kts | 349° |
| 2026-05-06 08:13 | 33.57429 | 34.46756 | 31726 ft | 451 kts | 348° |
| 2026-05-06 08:14 | 33.60562 | 34.46453 | 31964 ft | 450 kts | 349° |
| 2026-05-06 08:14 | 33.63704 | 34.46148 | 32212 ft | 450 kts | 349° |
| 2026-05-06 08:14 | 33.66808 | 34.45852 | 32455 ft | 449 kts | 348° |
| 2026-05-06 08:14 | 33.69916 | 34.45531 | 32741 ft | 448 kts | 348° |
| 2026-05-06 08:15 | 33.73031 | 34.45213 | 32952 ft | 448 kts | 348° |
| 2026-05-06 08:15 | 33.75087 | 34.45017 | 33119 ft | 448 kts | 348° |
| 2026-05-06 08:15 | 33.78197 | 34.44729 | 33377 ft | 447 kts | 348° |
| 2026-05-06 08:15 | 33.82343 | 34.44333 | 33608 ft | 447 kts | 348° |
| 2026-05-06 08:16 | 33.84404 | 34.44129 | 33750 ft | 447 kts | 348° |
| 2026-05-06 08:16 | 33.87495 | 34.43822 | 33958 ft | 446 kts | 348° |
| 2026-05-06 08:16 | 33.90597 | 34.43515 | 34109 ft | 447 kts | 348° |
| 2026-05-06 08:16 | 33.93697 | 34.43210 | 34107 ft | 445 kts | 348° |
| 2026-05-06 08:17 | 33.99871 | 34.42611 | 34109 ft | 446 kts | 348° |
| 2026-05-06 08:17 | 34.06708 | 34.41928 | 34111 ft | 445 kts | 348° |
| 2026-05-06 08:18 | 34.12887 | 34.41298 | 34109 ft | 445 kts | 348° |
| 2026-05-06 08:18 | 34.18058 | 34.40787 | 34118 ft | 445 kts | 349° |
| 2026-05-06 08:19 | 34.24186 | 34.40192 | 34128 ft | 445 kts | 348° |
| 2026-05-06 08:19 | 34.30352 | 34.39608 | 34127 ft | 444 kts | 348° |
| 2026-05-06 08:20 | 34.36506 | 34.39000 | 34115 ft | 442 kts | 348° |
| 2026-05-06 08:20 | 34.42634 | 34.38384 | 34113 ft | 440 kts | 348° |
| 2026-05-06 08:21 | 34.48576 | 34.37310 | 34086 ft | 432 kts | 342° |
| 2026-05-06 08:21 | 34.54515 | 34.35859 | 34051 ft | 431 kts | 341° |
| 2026-05-06 08:22 | 34.59477 | 34.34570 | 34062 ft | 433 kts | 341° |
| 2026-05-06 08:22 | 34.65433 | 34.33082 | 34086 ft | 438 kts | 342° |
| 2026-05-06 08:23 | 34.71425 | 34.31671 | 34103 ft | 440 kts | 342° |
| 2026-05-06 08:23 | 34.77423 | 34.30185 | 34105 ft | 440 kts | 342° |
| 2026-05-06 08:24 | 34.83420 | 34.28685 | 34103 ft | 440 kts | 341° |
| 2026-05-06 08:24 | 34.89421 | 34.27192 | 34114 ft | 439 kts | 342° |
| 2026-05-06 08:25 | 34.95410 | 34.25721 | 34109 ft | 439 kts | 342° |
| 2026-05-06 08:25 | 35.01435 | 34.24225 | 34075 ft | 439 kts | 342° |
| 2026-05-06 08:26 | 35.07432 | 34.22728 | 34040 ft | 439 kts | 342° |
| 2026-05-06 08:26 | 35.13414 | 34.21238 | 34039 ft | 440 kts | 342° |
| 2026-05-06 08:27 | 35.19408 | 34.19767 | 34083 ft | 439 kts | 342° |
| 2026-05-06 08:27 | 35.25408 | 34.18276 | 34079 ft | 438 kts | 342° |
| 2026-05-06 08:28 | 35.31387 | 34.16759 | 34062 ft | 439 kts | 343° |
| 2026-05-06 08:28 | 35.37377 | 34.15251 | 34090 ft | 438 kts | 343° |
| 2026-05-06 08:29 | 35.43362 | 34.13836 | 34091 ft | 438 kts | 343° |
| 2026-05-06 08:29 | 35.49326 | 34.12278 | 34056 ft | 438 kts | 342° |
| 2026-05-06 08:30 | 35.55294 | 34.10757 | 34065 ft | 438 kts | 343° |
| 2026-05-06 08:30 | 35.61341 | 34.09256 | 34103 ft | 437 kts | 343° |
| 2026-05-06 08:31 | 35.67340 | 34.07741 | 34078 ft | 437 kts | 343° |
| 2026-05-06 08:31 | 35.73351 | 34.06220 | 34079 ft | 437 kts | 343° |
| 2026-05-06 08:32 | 35.79306 | 34.04717 | 34073 ft | 437 kts | 343° |
| 2026-05-06 08:32 | 35.85260 | 34.03211 | 34061 ft | 437 kts | 343° |
| 2026-05-06 08:33 | 35.91206 | 34.01492 | 34051 ft | 432 kts | 335° |
| 2026-05-06 08:33 | 35.96409 | 33.98122 | 34058 ft | 424 kts | 324° |
| 2026-05-06 08:34 | 36.03911 | 33.92250 | 34057 ft | 424 kts | 324° |
| 2026-05-06 08:35 | 36.08960 | 33.88449 | 34082 ft | 425 kts | 324° |
| 2026-05-06 08:35 | 36.13981 | 33.84679 | 34126 ft | 424 kts | 324° |
| 2026-05-06 08:36 | 36.18869 | 33.80949 | 34109 ft | 424 kts | 324° |
| 2026-05-06 08:36 | 36.24004 | 33.77052 | 34122 ft | 424 kts | 324° |
| 2026-05-06 08:37 | 36.28147 | 33.73900 | 34094 ft | 424 kts | 324° |
| 2026-05-06 08:37 | 36.33273 | 33.69987 | 34105 ft | 423 kts | 324° |
| 2026-05-06 08:38 | 36.38347 | 33.66120 | 34100 ft | 422 kts | 324° |
| 2026-05-06 08:38 | 36.43348 | 33.62283 | 34089 ft | 422 kts | 324° |
| 2026-05-06 08:39 | 36.48411 | 33.58404 | 34065 ft | 422 kts | 324° |
| 2026-05-06 08:39 | 36.53481 | 33.54516 | 34043 ft | 422 kts | 324° |
| 2026-05-06 08:40 | 36.58517 | 33.50654 | 34054 ft | 422 kts | 324° |
| 2026-05-06 08:40 | 36.63512 | 33.46807 | 34078 ft | 422 kts | 324° |
| 2026-05-06 08:41 | 36.68496 | 33.42973 | 34090 ft | 422 kts | 324° |
| 2026-05-06 08:41 | 36.73543 | 33.39076 | 34072 ft | 422 kts | 325° |
| 2026-05-06 08:42 | 36.78529 | 33.35232 | 34102 ft | 421 kts | 325° |
| 2026-05-06 08:42 | 36.83563 | 33.31301 | 34106 ft | 421 kts | 324° |
| 2026-05-06 08:43 | 36.88261 | 33.26643 | 34089 ft | 416 kts | 311° |
| 2026-05-06 08:43 | 36.92187 | 33.21273 | 34059 ft | 416 kts | 309° |
| 2026-05-06 08:44 | 36.95504 | 33.16633 | 34063 ft | 416 kts | 310° |
| 2026-05-06 08:44 | 36.99454 | 33.11268 | 34053 ft | 416 kts | 311° |
| 2026-05-06 08:45 | 37.02743 | 33.06808 | 34069 ft | 416 kts | 311° |
| 2026-05-06 08:45 | 37.06654 | 33.01455 | 34089 ft | 416 kts | 311° |
| 2026-05-06 08:46 | 37.10564 | 32.96093 | 34075 ft | 417 kts | 310° |
| 2026-05-06 08:46 | 37.14474 | 32.90729 | 34091 ft | 416 kts | 310° |
| 2026-05-06 08:47 | 37.18405 | 32.85333 | 34089 ft | 417 kts | 311° |
| 2026-05-06 08:47 | 37.22311 | 32.79948 | 34077 ft | 417 kts | 311° |
| 2026-05-06 08:48 | 37.26224 | 32.74552 | 34089 ft | 417 kts | 311° |
| 2026-05-06 08:48 | 37.30139 | 32.69154 | 34078 ft | 418 kts | 311° |
| 2026-05-06 08:49 | 37.34047 | 32.63736 | 34059 ft | 418 kts | 311° |
| 2026-05-06 08:49 | 37.37930 | 32.58336 | 34086 ft | 418 kts | 311° |
| 2026-05-06 08:50 | 37.41867 | 32.52928 | 34085 ft | 419 kts | 311° |
| 2026-05-06 08:50 | 37.45773 | 32.47486 | 34064 ft | 420 kts | 311° |
| 2026-05-06 08:51 | 37.49681 | 32.42002 | 34095 ft | 420 kts | 311° |
| 2026-05-06 08:51 | 37.53595 | 32.36548 | 34097 ft | 420 kts | 311° |
| 2026-05-06 08:52 | 37.57520 | 32.31079 | 34091 ft | 421 kts | 311° |
| 2026-05-06 08:52 | 37.61444 | 32.25578 | 34075 ft | 422 kts | 311° |
| 2026-05-06 08:53 | 37.65367 | 32.20077 | 34104 ft | 421 kts | 311° |
| 2026-05-06 08:53 | 37.69292 | 32.14580 | 34078 ft | 422 kts | 312° |
| 2026-05-06 08:54 | 37.73220 | 32.09057 | 34111 ft | 422 kts | 312° |
| 2026-05-06 08:54 | 37.77029 | 32.03723 | 34111 ft | 422 kts | 312° |
| 2026-05-06 08:55 | 37.80855 | 31.98350 | 34086 ft | 422 kts | 311° |
| 2026-05-06 08:55 | 37.84772 | 31.92795 | 34067 ft | 423 kts | 312° |
| 2026-05-06 08:56 | 37.88703 | 31.87255 | 34088 ft | 423 kts | 311° |
| 2026-05-06 08:56 | 37.92619 | 31.81679 | 34084 ft | 423 kts | 311° |
| 2026-05-06 08:57 | 37.96544 | 31.76127 | 34104 ft | 423 kts | 311° |
| 2026-05-06 08:57 | 38.00455 | 31.70572 | 34156 ft | 422 kts | 312° |
| 2026-05-06 08:58 | 38.04353 | 31.65021 | 34163 ft | 421 kts | 311° |
| 2026-05-06 08:58 | 38.08241 | 31.59477 | 34142 ft | 420 kts | 312° |
| 2026-05-06 08:59 | 38.12124 | 31.53934 | 34114 ft | 419 kts | 311° |
| 2026-05-06 08:59 | 38.15990 | 31.48387 | 34092 ft | 419 kts | 311° |
| 2026-05-06 09:00 | 38.19851 | 31.42842 | 34091 ft | 419 kts | 311° |
| 2026-05-06 09:00 | 38.23716 | 31.37284 | 34091 ft | 419 kts | 312° |
| 2026-05-06 09:01 | 38.27582 | 31.31715 | 34081 ft | 420 kts | 312° |
| 2026-05-06 09:01 | 38.31457 | 31.26128 | 34093 ft | 421 kts | 312° |
| 2026-05-06 09:02 | 38.35329 | 31.20532 | 34161 ft | 421 kts | 311° |
| 2026-05-06 09:02 | 38.39305 | 31.14773 | 34180 ft | 421 kts | 312° |
| 2026-05-06 09:03 | 38.43147 | 31.09202 | 34169 ft | 420 kts | 312° |
| 2026-05-06 09:03 | 38.47032 | 31.03574 | 34172 ft | 419 kts | 313° |
| 2026-05-06 09:04 | 38.51490 | 30.98815 | 34152 ft | 417 kts | 325° |
| 2026-05-06 09:04 | 38.56314 | 30.94678 | 34126 ft | 417 kts | 326° |
| 2026-05-06 09:05 | 38.61110 | 30.90509 | 34118 ft | 416 kts | 325° |
| 2026-05-06 09:05 | 38.65848 | 30.86253 | 34095 ft | 416 kts | 325° |
| 2026-05-06 09:06 | 38.69796 | 30.82731 | 34082 ft | 416 kts | 325° |
| 2026-05-06 09:06 | 38.75162 | 30.78006 | 34076 ft | 417 kts | 326° |
| 2026-05-06 09:07 | 38.79926 | 30.73742 | 34072 ft | 417 kts | 325° |
| 2026-05-06 09:07 | 38.84693 | 30.69495 | 34112 ft | 418 kts | 327° |
| 2026-05-06 09:08 | 38.89805 | 30.65950 | 34166 ft | 417 kts | 332° |
| 2026-05-06 09:08 | 38.95014 | 30.62662 | 34164 ft | 417 kts | 333° |
| 2026-05-06 09:09 | 39.00204 | 30.59304 | 34165 ft | 417 kts | 332° |
| 2026-05-06 09:09 | 39.05218 | 30.56018 | 34148 ft | 416 kts | 332° |
| 2026-05-06 09:10 | 39.10376 | 30.52620 | 34120 ft | 416 kts | 332° |
| 2026-05-06 09:10 | 39.15544 | 30.49238 | 34092 ft | 416 kts | 333° |
| 2026-05-06 09:11 | 39.20703 | 30.45860 | 34073 ft | 416 kts | 332° |
| 2026-05-06 09:11 | 39.24998 | 30.43046 | 34074 ft | 416 kts | 332° |
| 2026-05-06 09:12 | 39.30160 | 30.39646 | 34074 ft | 417 kts | 332° |
| 2026-05-06 09:12 | 39.35347 | 30.36227 | 34081 ft | 418 kts | 332° |
| 2026-05-06 09:13 | 39.40520 | 30.32814 | 34071 ft | 419 kts | 332° |
| 2026-05-06 09:13 | 39.45714 | 30.29375 | 34074 ft | 420 kts | 332° |
| 2026-05-06 09:14 | 39.50968 | 30.26028 | 34077 ft | 421 kts | 336° |
| 2026-05-06 09:14 | 39.56391 | 30.23117 | 34075 ft | 423 kts | 337° |
| 2026-05-06 09:15 | 39.61840 | 30.20257 | 34093 ft | 423 kts | 337° |
| 2026-05-06 09:15 | 39.67249 | 30.17362 | 34136 ft | 423 kts | 336° |
| 2026-05-06 09:16 | 39.72874 | 30.14313 | 34113 ft | 423 kts | 336° |
| 2026-05-06 09:16 | 39.78472 | 30.11323 | 34094 ft | 424 kts | 337° |
| 2026-05-06 09:17 | 39.83964 | 30.08415 | 34093 ft | 424 kts | 336° |
| 2026-05-06 09:17 | 39.89683 | 30.05334 | 34075 ft | 425 kts | 336° |
| 2026-05-06 09:18 | 39.95147 | 30.02374 | 34086 ft | 425 kts | 336° |
| 2026-05-06 09:18 | 39.99833 | 29.99852 | 34084 ft | 425 kts | 336° |
| 2026-05-06 09:19 | 40.05416 | 29.96830 | 34105 ft | 425 kts | 336° |
| 2026-05-06 09:19 | 40.11055 | 29.93770 | 34101 ft | 425 kts | 336° |
| 2026-05-06 09:20 | 40.16407 | 29.90862 | 34105 ft | 425 kts | 336° |
| 2026-05-06 09:20 | 40.21984 | 29.87836 | 34116 ft | 424 kts | 336° |
| 2026-05-06 09:21 | 40.27477 | 29.84845 | 34097 ft | 425 kts | 336° |
| 2026-05-06 09:21 | 40.32927 | 29.81868 | 34127 ft | 424 kts | 336° |
| 2026-05-06 09:22 | 40.38372 | 29.78897 | 34154 ft | 423 kts | 336° |
| 2026-05-06 09:22 | 40.43801 | 29.75927 | 34127 ft | 422 kts | 336° |
| 2026-05-06 09:23 | 40.49222 | 29.72950 | 34107 ft | 421 kts | 336° |
| 2026-05-06 09:23 | 40.54566 | 29.70015 | 34083 ft | 421 kts | 336° |
| 2026-05-06 09:24 | 40.60038 | 29.66999 | 34072 ft | 421 kts | 336° |
| 2026-05-06 09:24 | 40.64693 | 29.64404 | 34069 ft | 422 kts | 334° |
| 2026-05-06 09:25 | 40.69463 | 29.60325 | 34069 ft | 422 kts | 322° |
| 2026-05-06 09:25 | 40.74234 | 29.55153 | 34104 ft | 422 kts | 321° |
| 2026-05-06 09:26 | 40.78811 | 29.50248 | 34163 ft | 421 kts | 322° |
| 2026-05-06 09:26 | 40.83513 | 29.45330 | 34157 ft | 421 kts | 322° |
| 2026-05-06 09:27 | 40.88095 | 29.40494 | 34158 ft | 421 kts | 321° |
| 2026-05-06 09:27 | 40.92658 | 29.35647 | 34153 ft | 421 kts | 322° |
| 2026-05-06 09:28 | 40.97224 | 29.30792 | 34129 ft | 421 kts | 321° |
| 2026-05-06 09:28 | 41.01784 | 29.25939 | 34101 ft | 421 kts | 321° |
| 2026-05-06 09:29 | 41.06351 | 29.21076 | 34139 ft | 419 kts | 321° |
| 2026-05-06 09:29 | 41.10887 | 29.16216 | 34153 ft | 418 kts | 321° |
| 2026-05-06 09:30 | 41.14713 | 29.10494 | 34113 ft | 420 kts | 306° |
| 2026-05-06 09:30 | 41.17924 | 29.03959 | 34088 ft | 419 kts | 304° |
| 2026-05-06 09:31 | 41.21091 | 28.97462 | 34072 ft | 419 kts | 305° |
| 2026-05-06 09:31 | 41.24335 | 28.90995 | 34069 ft | 419 kts | 305° |
| 2026-05-06 09:32 | 41.27573 | 28.84553 | 34070 ft | 420 kts | 305° |
| 2026-05-06 09:32 | 41.30809 | 28.78080 | 34075 ft | 420 kts | 305° |
| 2026-05-06 09:33 | 41.34019 | 28.71548 | 34071 ft | 422 kts | 305° |
| 2026-05-06 09:33 | 41.37241 | 28.65022 | 34101 ft | 421 kts | 305° |
| 2026-05-06 09:34 | 41.40473 | 28.58500 | 34133 ft | 421 kts | 305° |
| 2026-05-06 09:34 | 41.43697 | 28.51972 | 34160 ft | 421 kts | 305° |
| 2026-05-06 09:35 | 41.46905 | 28.45441 | 34154 ft | 421 kts | 305° |
| 2026-05-06 09:35 | 41.50319 | 28.39139 | 34134 ft | 418 kts | 314° |
| 2026-05-06 09:36 | 41.54434 | 28.33663 | 34124 ft | 417 kts | 317° |
| 2026-05-06 09:36 | 41.58613 | 28.28306 | 34101 ft | 416 kts | 317° |
| 2026-05-06 09:37 | 41.62736 | 28.22860 | 34085 ft | 416 kts | 316° |
| 2026-05-06 09:37 | 41.66820 | 28.17439 | 34063 ft | 417 kts | 316° |
| 2026-05-06 09:38 | 41.70959 | 28.11952 | 34068 ft | 417 kts | 316° |
| 2026-05-06 09:38 | 41.75060 | 28.06470 | 34071 ft | 418 kts | 316° |
| 2026-05-06 09:39 | 41.79246 | 28.00979 | 34072 ft | 419 kts | 316° |
| 2026-05-06 09:39 | 41.83410 | 27.95426 | 34081 ft | 420 kts | 316° |
| 2026-05-06 09:40 | 41.87557 | 27.89889 | 34145 ft | 420 kts | 316° |
| 2026-05-06 09:40 | 41.93220 | 27.82298 | 34159 ft | 421 kts | 315° |
| 2026-05-06 09:41 | 41.97419 | 27.76613 | 34156 ft | 420 kts | 316° |
| 2026-05-06 09:41 | 42.01546 | 27.71055 | 34157 ft | 419 kts | 316° |
| 2026-05-06 09:42 | 42.05675 | 27.65360 | 34139 ft | 419 kts | 316° |
| 2026-05-06 09:42 | 42.09752 | 27.59762 | 34110 ft | 418 kts | 315° |
| 2026-05-06 09:43 | 42.13841 | 27.54161 | 34087 ft | 418 kts | 315° |
| 2026-05-06 09:43 | 42.17907 | 27.48550 | 34069 ft | 418 kts | 315° |
| 2026-05-06 09:44 | 42.21983 | 27.42937 | 34078 ft | 419 kts | 316° |
| 2026-05-06 09:44 | 42.26076 | 27.37266 | 34105 ft | 419 kts | 315° |
| 2026-05-06 09:45 | 42.30147 | 27.31627 | 34139 ft | 418 kts | 315° |
| 2026-05-06 09:45 | 42.34215 | 27.25996 | 34155 ft | 419 kts | 316° |
| 2026-05-06 09:46 | 42.38277 | 27.20345 | 34154 ft | 419 kts | 316° |
| 2026-05-06 09:46 | 42.42337 | 27.14684 | 34157 ft | 419 kts | 315° |
| 2026-05-06 09:47 | 42.46385 | 27.09030 | 34163 ft | 417 kts | 315° |
| 2026-05-06 09:47 | 42.50411 | 27.03396 | 34147 ft | 415 kts | 315° |
| 2026-05-06 09:48 | 42.54419 | 26.97786 | 34133 ft | 413 kts | 315° |
| 2026-05-06 09:48 | 42.58398 | 26.92197 | 34109 ft | 410 kts | 315° |
| 2026-05-06 09:49 | 42.62349 | 26.86636 | 34077 ft | 408 kts | 316° |
| 2026-05-06 09:49 | 42.66289 | 26.81077 | 34091 ft | 411 kts | 315° |
| 2026-05-06 09:50 | 42.70280 | 26.75435 | 34117 ft | 416 kts | 315° |
| 2026-05-06 09:50 | 42.74297 | 26.69749 | 34114 ft | 416 kts | 315° |
| 2026-05-06 09:51 | 42.78305 | 26.64058 | 34113 ft | 416 kts | 315° |
| 2026-05-06 09:51 | 42.82055 | 26.58057 | 34116 ft | 418 kts | 304° |
| 2026-05-06 09:52 | 42.84837 | 26.51074 | 34114 ft | 418 kts | 300° |
| 2026-05-06 09:52 | 42.87491 | 26.43974 | 34113 ft | 416 kts | 300° |
| 2026-05-06 09:53 | 42.90236 | 26.36873 | 34087 ft | 413 kts | 301° |
| 2026-05-06 09:53 | 42.92913 | 26.29967 | 34049 ft | 411 kts | 300° |
| 2026-05-06 09:54 | 42.95587 | 26.23035 | 34059 ft | 415 kts | 300° |
| 2026-05-06 09:54 | 42.97855 | 26.17105 | 34057 ft | 418 kts | 300° |
| 2026-05-06 09:55 | 43.00559 | 26.10040 | 34066 ft | 420 kts | 300° |
| 2026-05-06 09:55 | 43.03278 | 26.02925 | 34065 ft | 419 kts | 300° |
| 2026-05-06 09:56 | 43.05963 | 25.95855 | 34072 ft | 419 kts | 300° |
| 2026-05-06 09:56 | 43.08627 | 25.88788 | 34074 ft | 416 kts | 300° |
| 2026-05-06 09:57 | 43.11285 | 25.81826 | 34067 ft | 413 kts | 300° |
| 2026-05-06 09:57 | 43.13936 | 25.74862 | 34033 ft | 411 kts | 300° |
| 2026-05-06 09:58 | 43.16847 | 25.68160 | 34004 ft | 407 kts | 308° |
| 2026-05-06 09:58 | 43.20200 | 25.61931 | 33978 ft | 406 kts | 309° |
| 2026-05-06 09:59 | 43.23567 | 25.55706 | 33984 ft | 406 kts | 308° |
| 2026-05-06 09:59 | 43.26888 | 25.49434 | 33981 ft | 407 kts | 308° |
| 2026-05-06 10:00 | 43.30230 | 25.43075 | 33985 ft | 408 kts | 308° |
| 2026-05-06 10:00 | 43.33560 | 25.36798 | 33988 ft | 409 kts | 308° |
| 2026-05-06 10:01 | 43.36914 | 25.30395 | 33990 ft | 411 kts | 308° |
| 2026-05-06 10:01 | 43.40258 | 25.23996 | 33991 ft | 413 kts | 308° |
| 2026-05-06 10:02 | 43.43620 | 25.17602 | 34038 ft | 413 kts | 307° |
| 2026-05-06 10:02 | 43.47018 | 25.11141 | 34087 ft | 413 kts | 308° |
| 2026-05-06 10:03 | 43.50379 | 25.04704 | 34087 ft | 412 kts | 308° |
| 2026-05-06 10:03 | 43.53712 | 24.98296 | 34085 ft | 410 kts | 308° |
| 2026-05-06 10:04 | 43.57020 | 24.91928 | 34079 ft | 407 kts | 308° |
| 2026-05-06 10:04 | 43.60308 | 24.85599 | 34066 ft | 404 kts | 308° |
| 2026-05-06 10:05 | 43.63564 | 24.79311 | 34052 ft | 401 kts | 307° |
| 2026-05-06 10:05 | 43.66805 | 24.73039 | 34071 ft | 403 kts | 307° |
| 2026-05-06 10:06 | 43.70061 | 24.66730 | 34065 ft | 408 kts | 307° |
| 2026-05-06 10:06 | 43.73347 | 24.60322 | 34072 ft | 408 kts | 307° |
| 2026-05-06 10:07 | 43.76796 | 24.54118 | 34072 ft | 406 kts | 313° |
| 2026-05-06 10:07 | 43.80636 | 24.48380 | 34081 ft | 405 kts | 315° |
| 2026-05-06 10:08 | 43.84478 | 24.42654 | 34085 ft | 406 kts | 314° |
| 2026-05-06 10:08 | 43.88317 | 24.36827 | 34100 ft | 405 kts | 314° |
| 2026-05-06 10:09 | 43.92187 | 24.31040 | 34099 ft | 405 kts | 314° |
| 2026-05-06 10:09 | 43.96057 | 24.25235 | 34098 ft | 404 kts | 314° |
| 2026-05-06 10:10 | 43.99959 | 24.19313 | 34070 ft | 404 kts | 314° |
| 2026-05-06 10:10 | 44.03749 | 24.13561 | 34045 ft | 404 kts | 313° |
| 2026-05-06 10:11 | 44.07550 | 24.07788 | 34016 ft | 404 kts | 313° |
| 2026-05-06 10:11 | 44.11349 | 24.02008 | 34017 ft | 404 kts | 314° |
| 2026-05-06 10:12 | 44.15136 | 23.96233 | 34025 ft | 404 kts | 314° |
| 2026-05-06 10:12 | 44.18334 | 23.91381 | 34018 ft | 405 kts | 314° |
| 2026-05-06 10:13 | 44.22225 | 23.85377 | 34050 ft | 404 kts | 314° |
| 2026-05-06 10:13 | 44.26020 | 23.79549 | 34019 ft | 405 kts | 313° |
| 2026-05-06 10:14 | 44.29801 | 23.73705 | 34047 ft | 405 kts | 313° |
| 2026-05-06 10:14 | 44.33603 | 23.67887 | 34055 ft | 405 kts | 313° |
| 2026-05-06 10:15 | 44.37387 | 23.62024 | 34051 ft | 406 kts | 313° |
| 2026-05-06 10:15 | 44.41263 | 23.56079 | 34061 ft | 406 kts | 313° |
| 2026-05-06 10:16 | 44.45044 | 23.50199 | 34036 ft | 406 kts | 313° |
| 2026-05-06 10:16 | 44.48763 | 23.44080 | 34003 ft | 408 kts | 310° |
| 2026-05-06 10:17 | 44.52446 | 23.37754 | 34005 ft | 408 kts | 310° |
| 2026-05-06 10:17 | 44.56063 | 23.31496 | 34028 ft | 409 kts | 310° |
| 2026-05-06 10:18 | 44.59125 | 23.26171 | 34079 ft | 408 kts | 310° |
| 2026-05-06 10:18 | 44.62689 | 23.19958 | 34063 ft | 409 kts | 309° |
| 2026-05-06 10:19 | 44.66261 | 23.13737 | 34051 ft | 409 kts | 309° |
| 2026-05-06 10:19 | 44.69836 | 23.07495 | 34024 ft | 410 kts | 309° |
| 2026-05-06 10:20 | 44.73408 | 23.01240 | 34011 ft | 410 kts | 309° |
| 2026-05-06 10:20 | 44.76977 | 22.94983 | 34036 ft | 410 kts | 309° |
| 2026-05-06 10:21 | 44.80545 | 22.88710 | 34015 ft | 410 kts | 309° |
| 2026-05-06 10:21 | 44.84118 | 22.82416 | 33991 ft | 411 kts | 309° |
| 2026-05-06 10:22 | 44.87667 | 22.76158 | 34035 ft | 411 kts | 309° |
| 2026-05-06 10:22 | 44.91230 | 22.69846 | 34042 ft | 411 kts | 309° |
| 2026-05-06 10:23 | 44.94791 | 22.63530 | 34070 ft | 411 kts | 309° |
| 2026-05-06 10:23 | 44.98345 | 22.57215 | 34064 ft | 411 kts | 308° |
| 2026-05-06 10:24 | 45.01897 | 22.50890 | 34070 ft | 411 kts | 308° |
| 2026-05-06 10:24 | 45.05438 | 22.44545 | 34072 ft | 411 kts | 308° |
| 2026-05-06 10:25 | 45.08986 | 22.38144 | 34071 ft | 411 kts | 308° |
| 2026-05-06 10:25 | 45.12543 | 22.31791 | 34069 ft | 411 kts | 308° |
| 2026-05-06 10:26 | 45.16107 | 22.25462 | 34064 ft | 411 kts | 308° |
| 2026-05-06 10:26 | 45.19631 | 22.19079 | 34046 ft | 411 kts | 308° |
| 2026-05-06 10:27 | 45.23157 | 22.12695 | 34026 ft | 411 kts | 308° |
| 2026-05-06 10:27 | 45.26692 | 22.06306 | 34015 ft | 411 kts | 308° |
| 2026-05-06 10:28 | 45.30215 | 21.99925 | 34008 ft | 411 kts | 308° |
| 2026-05-06 10:28 | 45.33732 | 21.93527 | 34015 ft | 411 kts | 307° |
| 2026-05-06 10:29 | 45.37262 | 21.87112 | 34016 ft | 411 kts | 307° |
| 2026-05-06 10:29 | 45.40781 | 21.80684 | 34040 ft | 411 kts | 307° |
| 2026-05-06 10:30 | 45.44291 | 21.74251 | 34029 ft | 411 kts | 307° |
| 2026-05-06 10:30 | 45.47803 | 21.67808 | 34056 ft | 411 kts | 307° |
| 2026-05-06 10:31 | 45.51313 | 21.61356 | 34041 ft | 411 kts | 307° |
| 2026-05-06 10:31 | 45.54809 | 21.54902 | 34015 ft | 411 kts | 307° |
| 2026-05-06 10:32 | 45.57714 | 21.49537 | 33991 ft | 412 kts | 307° |
| 2026-05-06 10:32 | 45.61192 | 21.43116 | 34003 ft | 411 kts | 307° |
| 2026-05-06 10:33 | 45.64687 | 21.36632 | 33982 ft | 412 kts | 306° |
| 2026-05-06 10:33 | 45.68180 | 21.30140 | 34000 ft | 412 kts | 307° |
| 2026-05-06 10:34 | 45.71689 | 21.23602 | 34000 ft | 412 kts | 306° |
| 2026-05-06 10:34 | 45.75232 | 21.17009 | 34010 ft | 412 kts | 306° |
| 2026-05-06 10:35 | 45.78782 | 21.10344 | 34012 ft | 412 kts | 306° |
| 2026-05-06 10:35 | 45.82343 | 21.03682 | 34026 ft | 412 kts | 306° |
| 2026-05-06 10:36 | 45.85818 | 20.97127 | 34009 ft | 413 kts | 306° |
| 2026-05-06 10:36 | 45.89315 | 20.90532 | 34037 ft | 412 kts | 306° |
| 2026-05-06 10:37 | 45.92789 | 20.83971 | 34024 ft | 413 kts | 305° |
| 2026-05-06 10:37 | 45.96266 | 20.77391 | 33997 ft | 413 kts | 305° |
| 2026-05-06 10:38 | 45.99292 | 20.71647 | 33980 ft | 414 kts | 305° |
| 2026-05-06 10:38 | 46.02178 | 20.66164 | 33972 ft | 414 kts | 305° |
| 2026-05-06 10:39 | 46.05683 | 20.59496 | 33943 ft | 415 kts | 304° |
| 2026-05-06 10:39 | 46.09142 | 20.52827 | 33953 ft | 415 kts | 304° |
| 2026-05-06 10:40 | 46.12671 | 20.46091 | 34002 ft | 415 kts | 304° |
| 2026-05-06 10:40 | 46.16098 | 20.39386 | 34005 ft | 414 kts | 300° |
| 2026-05-06 10:41 | 46.19082 | 20.32216 | 34028 ft | 414 kts | 298° |
| 2026-05-06 10:41 | 46.21989 | 20.25028 | 34026 ft | 415 kts | 298° |
| 2026-05-06 10:42 | 46.24933 | 20.17851 | 34009 ft | 415 kts | 298° |
| 2026-05-06 10:42 | 46.27871 | 20.10688 | 34009 ft | 413 kts | 298° |
| 2026-05-06 10:43 | 46.30803 | 20.03503 | 34002 ft | 412 kts | 298° |
| 2026-05-06 10:44 | 46.35133 | 19.92849 | 33964 ft | 409 kts | 298° |
| 2026-05-06 10:44 | 46.38028 | 19.85709 | 33937 ft | 408 kts | 298° |
| 2026-05-06 10:45 | 46.40898 | 19.78607 | 33915 ft | 408 kts | 298° |
| 2026-05-06 10:45 | 46.43760 | 19.71497 | 33921 ft | 409 kts | 298° |
| 2026-05-06 10:46 | 46.46635 | 19.64359 | 33922 ft | 410 kts | 298° |
| 2026-05-06 10:46 | 46.49511 | 19.57197 | 33922 ft | 412 kts | 297° |
| 2026-05-06 10:47 | 46.52397 | 19.49983 | 33924 ft | 414 kts | 297° |
| 2026-05-06 10:47 | 46.55366 | 19.42533 | 33922 ft | 415 kts | 297° |
| 2026-05-06 10:48 | 46.58268 | 19.35248 | 33936 ft | 417 kts | 297° |
| 2026-05-06 10:48 | 46.61136 | 19.28006 | 34002 ft | 417 kts | 297° |
| 2026-05-06 10:49 | 46.64029 | 19.20667 | 34010 ft | 418 kts | 297° |
| 2026-05-06 10:49 | 46.66461 | 19.14529 | 34010 ft | 418 kts | 297° |
| 2026-05-06 10:50 | 46.69369 | 19.07201 | 34004 ft | 418 kts | 296° |
| 2026-05-06 10:50 | 46.72713 | 18.98625 | 33991 ft | 418 kts | 296° |
| 2026-05-06 10:51 | 46.75115 | 18.92467 | 33972 ft | 417 kts | 297° |
| 2026-05-06 10:51 | 46.78001 | 18.85122 | 33945 ft | 416 kts | 296° |
| 2026-05-06 10:52 | 46.80866 | 18.77777 | 33915 ft | 416 kts | 296° |
| 2026-05-06 10:52 | 46.83703 | 18.70467 | 33898 ft | 416 kts | 296° |
| 2026-05-06 10:53 | 46.86557 | 18.63095 | 33894 ft | 417 kts | 296° |
| 2026-05-06 10:53 | 46.89412 | 18.55716 | 33899 ft | 418 kts | 296° |
| 2026-05-06 10:54 | 46.92291 | 18.48255 | 33895 ft | 419 kts | 296° |
| 2026-05-06 10:54 | 46.95143 | 18.40795 | 33896 ft | 421 kts | 296° |
| 2026-05-06 10:55 | 46.97997 | 18.33312 | 33960 ft | 421 kts | 296° |
| 2026-05-06 10:55 | 47.00873 | 18.25842 | 33977 ft | 421 kts | 296° |
| 2026-05-06 10:56 | 47.03251 | 18.19622 | 33977 ft | 421 kts | 296° |
| 2026-05-06 10:56 | 47.06096 | 18.12117 | 33960 ft | 422 kts | 296° |
| 2026-05-06 10:57 | 47.08955 | 18.04581 | 33930 ft | 422 kts | 295° |
| 2026-05-06 10:57 | 47.11806 | 17.97046 | 33898 ft | 422 kts | 295° |
| 2026-05-06 10:58 | 47.14653 | 17.89502 | 33874 ft | 422 kts | 295° |
| 2026-05-06 10:58 | 47.17500 | 17.81934 | 33848 ft | 423 kts | 295° |
| 2026-05-06 10:59 | 47.20345 | 17.74345 | 33848 ft | 424 kts | 295° |
| 2026-05-06 10:59 | 47.23175 | 17.66778 | 33844 ft | 425 kts | 295° |
| 2026-05-06 11:00 | 47.26039 | 17.59102 | 33907 ft | 425 kts | 295° |
| 2026-05-06 11:00 | 47.28876 | 17.51469 | 33918 ft | 425 kts | 295° |
| 2026-05-06 11:01 | 47.31691 | 17.43876 | 33920 ft | 425 kts | 294° |
| 2026-05-06 11:01 | 47.34514 | 17.36234 | 33921 ft | 424 kts | 294° |
| 2026-05-06 11:02 | 47.37342 | 17.28541 | 33918 ft | 424 kts | 294° |
| 2026-05-06 11:02 | 47.40142 | 17.20933 | 33894 ft | 424 kts | 294° |
| 2026-05-06 11:03 | 47.42949 | 17.13287 | 33865 ft | 424 kts | 294° |
| 2026-05-06 11:03 | 47.45750 | 17.05611 | 33840 ft | 424 kts | 294° |
| 2026-05-06 11:04 | 47.48550 | 16.97916 | 33824 ft | 425 kts | 294° |
| 2026-05-06 11:04 | 47.51349 | 16.90219 | 33826 ft | 425 kts | 294° |
| 2026-05-06 11:05 | 47.54148 | 16.82495 | 33835 ft | 425 kts | 294° |
| 2026-05-06 11:05 | 47.56884 | 16.74737 | 33873 ft | 423 kts | 290° |
| 2026-05-06 11:06 | 47.59130 | 16.66699 | 33865 ft | 422 kts | 287° |
| 2026-05-06 11:06 | 47.61290 | 16.58595 | 33848 ft | 423 kts | 288° |
| 2026-05-06 11:07 | 47.63477 | 16.50521 | 33897 ft | 422 kts | 288° |
| 2026-05-06 11:07 | 47.65659 | 16.42499 | 33871 ft | 422 kts | 288° |
| 2026-05-06 11:08 | 47.67838 | 16.34422 | 33844 ft | 422 kts | 288° |
| 2026-05-06 11:08 | 47.70026 | 16.26289 | 33813 ft | 422 kts | 287° |
| 2026-05-06 11:09 | 47.72162 | 16.18227 | 33795 ft | 422 kts | 287° |
| 2026-05-06 11:09 | 47.74337 | 16.10125 | 33792 ft | 423 kts | 287° |
| 2026-05-06 11:10 | 47.76486 | 16.01989 | 33792 ft | 423 kts | 287° |
| 2026-05-06 11:10 | 47.78656 | 15.93820 | 33793 ft | 425 kts | 287° |
| 2026-05-06 11:11 | 47.80818 | 15.85637 | 33851 ft | 424 kts | 287° |
| 2026-05-06 11:11 | 47.82962 | 15.77454 | 33879 ft | 425 kts | 287° |
| 2026-05-06 11:12 | 47.85108 | 15.69269 | 33879 ft | 424 kts | 287° |
| 2026-05-06 11:12 | 47.87250 | 15.61084 | 33886 ft | 423 kts | 287° |
| 2026-05-06 11:13 | 47.89378 | 15.52906 | 33884 ft | 422 kts | 287° |
| 2026-05-06 11:13 | 47.91498 | 15.44742 | 33880 ft | 422 kts | 286° |
| 2026-05-06 11:14 | 47.93599 | 15.36604 | 33876 ft | 420 kts | 286° |
| 2026-05-06 11:14 | 47.95693 | 15.28457 | 33854 ft | 419 kts | 286° |
| 2026-05-06 11:15 | 47.97776 | 15.20329 | 33829 ft | 418 kts | 286° |
| 2026-05-06 11:15 | 47.99849 | 15.12211 | 33799 ft | 418 kts | 285° |
| 2026-05-06 11:16 | 48.01921 | 15.04090 | 33787 ft | 418 kts | 285° |
| 2026-05-06 11:16 | 48.03988 | 14.95957 | 33777 ft | 419 kts | 285° |
| 2026-05-06 11:17 | 48.06048 | 14.87798 | 33791 ft | 420 kts | 285° |
| 2026-05-06 11:17 | 48.08093 | 14.79676 | 33851 ft | 419 kts | 285° |
| 2026-05-06 11:18 | 48.10144 | 14.71514 | 33853 ft | 419 kts | 285° |
| 2026-05-06 11:18 | 48.12184 | 14.63356 | 33851 ft | 418 kts | 285° |
| 2026-05-06 11:19 | 48.14214 | 14.55184 | 33844 ft | 418 kts | 284° |
| 2026-05-06 11:19 | 48.16238 | 14.47053 | 33836 ft | 417 kts | 285° |
| 2026-05-06 11:20 | 48.18278 | 14.38815 | 33818 ft | 416 kts | 285° |
| 2026-05-06 11:20 | 48.20231 | 14.30895 | 33778 ft | 415 kts | 284° |
| 2026-05-06 11:21 | 48.21898 | 14.24106 | 33743 ft | 415 kts | 284° |
| 2026-05-06 11:21 | 48.23889 | 14.15971 | 33746 ft | 415 kts | 284° |
| 2026-05-06 11:21 | 48.24919 | 14.11750 | 33857 ft | 417 kts | 284° |
| 2026-05-06 11:22 | 48.25948 | 14.07533 | 34150 ft | 416 kts | 284° |
| 2026-05-06 11:22 | 48.26943 | 14.03446 | 34383 ft | 417 kts | 284° |
| 2026-05-06 11:22 | 48.27937 | 13.99354 | 34602 ft | 418 kts | 284° |
| 2026-05-06 11:22 | 48.28929 | 13.95255 | 34809 ft | 418 kts | 284° |
| 2026-05-06 11:23 | 48.29940 | 13.91073 | 35062 ft | 418 kts | 284° |
| 2026-05-06 11:23 | 48.30934 | 13.86958 | 35276 ft | 419 kts | 284° |
| 2026-05-06 11:23 | 48.31925 | 13.82854 | 35487 ft | 419 kts | 284° |
| 2026-05-06 11:23 | 48.32918 | 13.78729 | 35698 ft | 419 kts | 284° |
| 2026-05-06 11:24 | 48.33924 | 13.74536 | 35804 ft | 420 kts | 284° |
| 2026-05-06 11:24 | 48.35886 | 13.66337 | 35796 ft | 420 kts | 284° |
| 2026-05-06 11:25 | 48.37862 | 13.58059 | 35794 ft | 420 kts | 284° |
| 2026-05-06 11:25 | 48.39833 | 13.49760 | 35793 ft | 420 kts | 284° |
| 2026-05-06 11:26 | 48.41791 | 13.41496 | 35793 ft | 420 kts | 284° |
| 2026-05-06 11:26 | 48.43763 | 13.33214 | 35828 ft | 421 kts | 285° |
| 2026-05-06 11:27 | 48.45927 | 13.24984 | 35795 ft | 422 kts | 286° |
| 2026-05-06 11:27 | 48.48111 | 13.16762 | 35754 ft | 423 kts | 286° |
| 2026-05-06 11:28 | 48.50274 | 13.08529 | 35762 ft | 422 kts | 285° |
| 2026-05-06 11:28 | 48.52430 | 13.00286 | 35739 ft | 423 kts | 285° |
| 2026-05-06 11:29 | 48.54589 | 12.92018 | 35747 ft | 423 kts | 285° |
| 2026-05-06 11:29 | 48.56725 | 12.83801 | 35759 ft | 423 kts | 285° |
| 2026-05-06 11:30 | 48.58876 | 12.75509 | 35765 ft | 423 kts | 285° |
| 2026-05-06 11:30 | 48.61029 | 12.67165 | 35743 ft | 424 kts | 285° |
| 2026-05-06 11:31 | 48.63167 | 12.58855 | 35789 ft | 423 kts | 285° |
| 2026-05-06 11:31 | 48.65281 | 12.50608 | 35819 ft | 423 kts | 285° |
| 2026-05-06 11:32 | 48.67404 | 12.42296 | 35830 ft | 423 kts | 285° |
| 2026-05-06 11:32 | 48.69520 | 12.33980 | 35833 ft | 424 kts | 285° |
| 2026-05-06 11:33 | 48.71628 | 12.25670 | 35833 ft | 424 kts | 285° |
| 2026-05-06 11:33 | 48.73742 | 12.17298 | 35835 ft | 423 kts | 285° |
| 2026-05-06 11:34 | 48.75415 | 12.08827 | 35832 ft | 415 kts | 275° |
| 2026-05-06 11:34 | 48.76332 | 12.00202 | 35794 ft | 414 kts | 273° |
| 2026-05-06 11:35 | 48.77202 | 11.91564 | 35751 ft | 415 kts | 274° |
| 2026-05-06 11:35 | 48.78151 | 11.82921 | 35745 ft | 416 kts | 274° |
| 2026-05-06 11:36 | 48.79078 | 11.74277 | 35746 ft | 416 kts | 274° |
| 2026-05-06 11:36 | 48.79983 | 11.65585 | 35743 ft | 417 kts | 274° |
| 2026-05-06 11:37 | 48.80625 | 11.59458 | 35747 ft | 418 kts | 274° |
| 2026-05-06 11:37 | 48.81536 | 11.50693 | 35788 ft | 418 kts | 274° |
| 2026-05-06 11:38 | 48.82432 | 11.41955 | 35793 ft | 418 kts | 274° |
| 2026-05-06 11:38 | 48.83172 | 11.34697 | 35784 ft | 419 kts | 274° |
| 2026-05-06 11:39 | 48.84555 | 11.24505 | 35825 ft | 426 kts | 285° |
| 2026-05-06 11:39 | 48.85934 | 11.20366 | 35812 ft | 435 kts | 298° |
| 2026-05-06 11:39 | 48.87244 | 11.17838 | 35799 ft | 443 kts | 307° |
| 2026-05-06 11:40 | 48.91915 | 11.11435 | 35779 ft | 448 kts | 313° |
| 2026-05-06 11:40 | 48.96598 | 11.05177 | 35742 ft | 447 kts | 311° |
| 2026-05-06 11:41 | 49.01259 | 10.98521 | 35721 ft | 448 kts | 310° |
| 2026-05-06 11:41 | 49.03536 | 10.95264 | 35395 ft | 448 kts | 311° |
| 2026-05-06 11:41 | 49.05823 | 10.92045 | 34771 ft | 449 kts | 311° |
| 2026-05-06 11:41 | 49.08130 | 10.88830 | 34098 ft | 449 kts | 311° |
| 2026-05-06 11:42 | 49.10435 | 10.85612 | 33427 ft | 449 kts | 311° |
| 2026-05-06 11:42 | 49.12790 | 10.82292 | 32737 ft | 449 kts | 310° |
| 2026-05-06 11:42 | 49.15079 | 10.79040 | 32062 ft | 448 kts | 310° |
| 2026-05-06 11:42 | 49.17355 | 10.75796 | 31429 ft | 447 kts | 310° |
| 2026-05-06 11:43 | 49.19613 | 10.72556 | 30836 ft | 443 kts | 309° |
| 2026-05-06 11:43 | 49.21774 | 10.69229 | 30271 ft | 438 kts | 308° |
| 2026-05-06 11:43 | 49.23891 | 10.65908 | 29737 ft | 433 kts | 307° |
| 2026-05-06 11:44 | 49.28107 | 10.59234 | 28611 ft | 426 kts | 308° |
| 2026-05-06 11:44 | 49.30132 | 10.56022 | 28101 ft | 422 kts | 308° |
| 2026-05-06 11:44 | 49.32164 | 10.52810 | 27589 ft | 418 kts | 308° |
| 2026-05-06 11:44 | 49.34263 | 10.49494 | 27035 ft | 414 kts | 309° |
| 2026-05-06 11:45 | 49.36292 | 10.46100 | 26478 ft | 408 kts | 303° |
| 2026-05-06 11:45 | 49.37962 | 10.42653 | 25970 ft | 403 kts | 301° |
| 2026-05-06 11:45 | 49.39558 | 10.39146 | 25467 ft | 399 kts | 300° |
| 2026-05-06 11:45 | 49.41116 | 10.35643 | 24984 ft | 395 kts | 300° |
| 2026-05-06 11:46 | 49.42184 | 10.33246 | 24627 ft | 393 kts | 300° |
| 2026-05-06 11:46 | 49.43735 | 10.29802 | 24107 ft | 391 kts | 301° |
| 2026-05-06 11:46 | 49.45293 | 10.26388 | 23614 ft | 388 kts | 301° |
| 2026-05-06 11:46 | 49.46850 | 10.22994 | 23133 ft | 385 kts | 302° |
| 2026-05-06 11:47 | 49.48407 | 10.19584 | 22650 ft | 382 kts | 302° |
| 2026-05-06 11:47 | 49.49914 | 10.16255 | 22176 ft | 379 kts | 302° |
| 2026-05-06 11:47 | 49.51411 | 10.12943 | 21695 ft | 376 kts | 302° |
| 2026-05-06 11:47 | 49.52899 | 10.09647 | 21215 ft | 373 kts | 302° |
| 2026-05-06 11:48 | 49.54433 | 10.06250 | 20721 ft | 370 kts | 302° |
| 2026-05-06 11:48 | 49.55897 | 10.03004 | 20272 ft | 368 kts | 302° |
| 2026-05-06 11:48 | 49.57349 | 9.99775 | 19827 ft | 367 kts | 302° |
| 2026-05-06 11:48 | 49.58840 | 9.96451 | 19332 ft | 366 kts | 302° |
| 2026-05-06 11:49 | 49.60307 | 9.93186 | 18848 ft | 366 kts | 302° |
| 2026-05-06 11:49 | 49.61772 | 9.89924 | 18386 ft | 364 kts | 302° |
| 2026-05-06 11:49 | 49.63215 | 9.86711 | 17933 ft | 363 kts | 303° |
| 2026-05-06 11:49 | 49.64689 | 9.83420 | 17467 ft | 362 kts | 302° |
| 2026-05-06 11:50 | 49.66133 | 9.80190 | 16973 ft | 361 kts | 302° |
| 2026-05-06 11:50 | 49.67556 | 9.76999 | 16503 ft | 360 kts | 302° |
| 2026-05-06 11:50 | 49.68974 | 9.73822 | 16045 ft | 358 kts | 302° |
| 2026-05-06 11:50 | 49.70376 | 9.70683 | 15792 ft | 349 kts | 302° |
| 2026-05-06 11:51 | 49.71748 | 9.67603 | 15766 ft | 339 kts | 302° |
| 2026-05-06 11:51 | 49.73070 | 9.64630 | 15492 ft | 333 kts | 301° |
| 2026-05-06 11:51 | 49.74387 | 9.61658 | 14861 ft | 337 kts | 301° |
| 2026-05-06 11:51 | 49.75824 | 9.58401 | 13912 ft | 347 kts | 301° |
| 2026-05-06 11:52 | 49.77156 | 9.55385 | 13228 ft | 351 kts | 301° |
| 2026-05-06 11:52 | 49.78522 | 9.52312 | 12799 ft | 339 kts | 301° |
| 2026-05-06 11:52 | 49.79829 | 9.49371 | 12423 ft | 328 kts | 300° |
| 2026-05-06 11:52 | 49.80744 | 9.47304 | 12140 ft | 324 kts | 300° |
| 2026-05-06 11:53 | 49.82010 | 9.44430 | 11715 ft | 321 kts | 300° |
| 2026-05-06 11:53 | 49.83260 | 9.41581 | 11296 ft | 318 kts | 300° |
| 2026-05-06 11:53 | 49.84501 | 9.38759 | 10861 ft | 316 kts | 300° |
| 2026-05-06 11:53 | 49.85760 | 9.35875 | 10517 ft | 310 kts | 299° |
| 2026-05-06 11:54 | 49.86684 | 9.32812 | 10318 ft | 307 kts | 286° |
| 2026-05-06 11:54 | 49.87329 | 9.29606 | 10193 ft | 306 kts | 283° |
| 2026-05-06 11:54 | 49.87938 | 9.26192 | 10069 ft | 306 kts | 282° |
| 2026-05-06 11:54 | 49.88515 | 9.22945 | 9984 ft | 307 kts | 283° |
| 2026-05-06 11:55 | 49.89125 | 9.19618 | 9863 ft | 306 kts | 283° |
| 2026-05-06 11:55 | 49.89699 | 9.16604 | 9762 ft | 304 kts | 284° |
| 2026-05-06 11:55 | 49.90306 | 9.13450 | 9765 ft | 305 kts | 284° |
| 2026-05-06 11:55 | 49.90911 | 9.10299 | 9767 ft | 306 kts | 284° |
| 2026-05-06 11:56 | 49.91523 | 9.07089 | 9748 ft | 306 kts | 284° |
| 2026-05-06 11:56 | 49.92115 | 9.03959 | 9737 ft | 305 kts | 284° |
| 2026-05-06 11:56 | 49.92712 | 9.00797 | 9742 ft | 305 kts | 284° |
| 2026-05-06 11:56 | 49.93310 | 8.97640 | 9780 ft | 306 kts | 284° |
| 2026-05-06 11:57 | 49.94189 | 8.94611 | 9717 ft | 311 kts | 301° |
| 2026-05-06 11:57 | 49.95772 | 8.92221 | 9292 ft | 316 kts | 326° |
| 2026-05-06 11:57 | 49.97864 | 8.91109 | 8781 ft | 319 kts | 352° |
| 2026-05-06 11:57 | 50.00094 | 8.91244 | 8432 ft | 311 kts | 9° |
| 2026-05-06 11:58 | 50.02049 | 8.92402 | 8133 ft | 303 kts | 31° |
| 2026-05-06 11:58 | 50.03569 | 8.94579 | 7846 ft | 294 kts | 54° |
| 2026-05-06 11:58 | 50.04435 | 8.97347 | 7743 ft | 277 kts | 72° |
| 2026-05-06 11:58 | 50.05018 | 9.00304 | 7573 ft | 266 kts | 74° |
| 2026-05-06 11:59 | 50.05562 | 9.03004 | 7362 ft | 262 kts | 71° |
| 2026-05-06 11:59 | 50.06212 | 9.05714 | 7108 ft | 260 kts | 69° |
| 2026-05-06 11:59 | 50.06649 | 9.07452 | 6943 ft | 260 kts | 69° |
| 2026-05-06 11:59 | 50.07290 | 9.10127 | 6682 ft | 259 kts | 71° |
| 2026-05-06 12:00 | 50.07887 | 9.12760 | 6395 ft | 257 kts | 71° |
| 2026-05-06 12:00 | 50.08552 | 9.15344 | 5987 ft | 257 kts | 59° |
| 2026-05-06 12:00 | 50.09748 | 9.17424 | 5509 ft | 257 kts | 33° |
| 2026-05-06 12:00 | 50.11396 | 9.18491 | 5096 ft | 250 kts | 5° |
| 2026-05-06 12:01 | 50.13041 | 9.18393 | 4812 ft | 239 kts | 343° |
| 2026-05-06 12:01 | 50.14486 | 9.17289 | 4546 ft | 226 kts | 315° |
| 2026-05-06 12:01 | 50.15426 | 9.15434 | 4326 ft | 214 kts | 297° |
| 2026-05-06 12:01 | 50.16086 | 9.13415 | 4105 ft | 205 kts | 290° |
| 2026-05-06 12:02 | 50.16268 | 9.11302 | 3966 ft | 192 kts | 262° |
| 2026-05-06 12:02 | 50.15997 | 9.09279 | 3968 ft | 190 kts | 253° |
| 2026-05-06 12:02 | 50.15595 | 9.07310 | 3986 ft | 190 kts | 250° |
| 2026-05-06 12:02 | 50.15156 | 9.05360 | 3993 ft | 190 kts | 249° |
| 2026-05-06 12:03 | 50.14677 | 9.03356 | 3999 ft | 190 kts | 249° |
| 2026-05-06 12:03 | 50.14200 | 9.01415 | 4010 ft | 190 kts | 248° |
| 2026-05-06 12:03 | 50.13723 | 8.99446 | 4009 ft | 191 kts | 249° |
| 2026-05-06 12:03 | 50.13264 | 8.97490 | 4000 ft | 191 kts | 249° |
| 2026-05-06 12:04 | 50.12815 | 8.95573 | 3999 ft | 191 kts | 249° |
| 2026-05-06 12:04 | 50.12351 | 8.93625 | 3997 ft | 191 kts | 249° |
| 2026-05-06 12:04 | 50.11884 | 8.91684 | 3998 ft | 191 kts | 249° |
| 2026-05-06 12:04 | 50.11397 | 8.89640 | 4001 ft | 191 kts | 249° |
| 2026-05-06 12:05 | 50.10953 | 8.87770 | 4003 ft | 191 kts | 249° |
| 2026-05-06 12:05 | 50.10492 | 8.85832 | 3899 ft | 191 kts | 249° |
| 2026-05-06 12:05 | 50.10031 | 8.83900 | 3712 ft | 190 kts | 249° |
| 2026-05-06 12:05 | 50.09572 | 8.81976 | 3491 ft | 188 kts | 249° |
| 2026-05-06 12:06 | 50.09128 | 8.80109 | 3249 ft | 188 kts | 249° |
| 2026-05-06 12:06 | 50.08667 | 8.78181 | 2997 ft | 188 kts | 249° |
| 2026-05-06 12:06 | 50.08214 | 8.76278 | 2799 ft | 185 kts | 249° |
| 2026-05-06 12:06 | 50.07770 | 8.74418 | 2541 ft | 183 kts | 249° |
| 2026-05-06 12:07 | 50.07327 | 8.72564 | 2275 ft | 181 kts | 249° |
| 2026-05-06 12:07 | 50.06898 | 8.70759 | 2031 ft | 173 kts | 248° |
| 2026-05-06 12:07 | 50.06494 | 8.69069 | 1827 ft | 161 kts | 247° |
| 2026-05-06 12:07 | 50.06116 | 8.67485 | 1606 ft | 150 kts | 248° |
| 2026-05-06 12:08 | 50.05771 | 8.66043 | 1399 ft | 134 kts | 248° |
| 2026-05-06 12:08 | 50.05459 | 8.64734 | 1235 ft | 128 kts | 247° |
| 2026-05-06 12:08 | 50.05128 | 8.63350 | 1046 ft | 128 kts | 247° |
| 2026-05-06 12:08 | 50.04813 | 8.62032 | 882 ft | 128 kts | 247° |
| 2026-05-06 12:09 | 50.04503 | 8.60733 | 709 ft | 128 kts | 247° |
| 2026-05-06 12:09 | 50.04192 | 8.59433 | 523 ft | 129 kts | 248° |
| 2026-05-06 12:09 | 50.03884 | 8.58140 | 382 ft | 124 kts | 247° |
| 2026-05-06 12:09 | 50.03622 | 8.57055 | 378 ft | 78 kts | 250° |
| 2026-05-06 12:10 | 50.03480 | 8.56471 | 378 ft | 46 kts | 247° |
| 2026-05-06 12:10 | 50.03427 | 8.56117 | 378 ft | 21 kts | 275° |
| 2026-05-06 12:10 | 50.03445 | 8.55959 | 378 ft | 15 kts | 281° |
| 2026-05-06 12:10 | 50.03461 | 8.55837 | 378 ft | 11 kts | 282° |
| 2026-05-06 12:11 | 50.03473 | 8.55757 | 378 ft | 5 kts | 282° |
| 2026-05-06 12:11 | 50.03486 | 8.55716 | 378 ft | 3 kts | 342° |
| 2026-05-06 12:11 | 50.03517 | 8.55703 | 378 ft | 6 kts | 354° |
| 2026-05-06 12:11 | 50.03557 | 8.55740 | 378 ft | 8 kts | 58° |
| 2026-05-06 12:12 | 50.03580 | 8.55834 | 378 ft | 11 kts | 70° |
| 2026-05-06 12:12 | 50.03608 | 8.55956 | 378 ft | 13 kts | 70° |
| 2026-05-06 12:12 | 50.03643 | 8.56104 | 378 ft | 16 kts | 68° |
| 2026-05-06 12:12 | 50.03686 | 8.56275 | 378 ft | 18 kts | 70° |
| 2026-05-06 12:13 | 50.03725 | 8.56446 | 378 ft | 18 kts | 71° |
| 2026-05-06 12:13 | 50.03770 | 8.56634 | 378 ft | 20 kts | 70° |
| 2026-05-06 12:13 | 50.03823 | 8.56852 | 378 ft | 23 kts | 70° |
| 2026-05-06 12:13 | 50.03875 | 8.57100 | 378 ft | 25 kts | 72° |
| 2026-05-06 12:14 | 50.03942 | 8.57369 | 378 ft | 28 kts | 66° |
| 2026-05-06 12:14 | 50.04017 | 8.57664 | 378 ft | 30 kts | 70° |
| 2026-05-06 12:14 | 50.04093 | 8.57985 | 378 ft | 33 kts | 69° |
| 2026-05-06 12:14 | 50.04175 | 8.58332 | 378 ft | 35 kts | 69° |
| 2026-05-06 12:15 | 50.04224 | 8.58534 | 378 ft | 10 kts | 70° |
| 2026-05-06 12:15 | 50.04251 | 8.58653 | 378 ft | 13 kts | 70° |
| 2026-05-06 12:15 | 50.04287 | 8.58798 | 378 ft | 16 kts | 68° |
| 2026-05-06 12:15 | 50.04331 | 8.58968 | 378 ft | 18 kts | 69° |
| 2026-05-06 12:16 | 50.04378 | 8.59168 | 378 ft | 21 kts | 70° |
| 2026-05-06 12:16 | 50.04427 | 8.59380 | 378 ft | 18 kts | 70° |
| 2026-05-06 12:16 | 50.04449 | 8.59491 | 378 ft | 10 kts | 82° |
| 2026-05-06 12:16 | 50.04458 | 8.59598 | 378 ft | 8 kts | 69° |
| 2026-05-06 12:17 | 50.04514 | 8.59624 | 378 ft | 10 kts | 353° |
| 2026-05-06 12:17 | 50.04594 | 8.59622 | 378 ft | 13 kts | 0° |
| 2026-05-06 12:17 | 50.04690 | 8.59614 | 378 ft | 15 kts | 351° |
| 2026-05-06 12:17 | 50.04796 | 8.59545 | 378 ft | 18 kts | 320° |
| 2026-05-06 12:18 | 50.04861 | 8.59459 | 378 ft | 11 kts | 319° |
| 2026-05-06 12:18 | 50.04912 | 8.59397 | 378 ft | 10 kts | 324° |
| 2026-05-06 12:18 | 50.04983 | 8.59350 | 378 ft | 12 kts | 342° |
| 2026-05-06 12:18 | 50.05057 | 8.59306 | 378 ft | 9 kts | 330° |
| 2026-05-06 12:19 | 50.05077 | 8.59222 | 378 ft | 10 kts | 260° |
| 2026-05-06 12:19 | 50.05054 | 8.59110 | 378 ft | 10 kts | 248° |
| 2026-05-06 12:19 | 50.05034 | 8.59028 | 378 ft | 9 kts | 249° |
| 2026-05-06 12:19 | 50.05015 | 8.58947 | 378 ft | 5 kts | 250° |
| 2026-05-06 12:20 | 50.05012 | 8.58909 | 378 ft | 4 kts | 295° |
| 2026-05-06 12:20 | 50.05030 | 8.58888 | 378 ft | 3 kts | 335° |
| 2026-05-06 12:20 | 50.05052 | 8.58875 | 378 ft | 3 kts | 340° |
| 2026-05-06 12:20 | 50.05076 | 8.58861 | 378 ft | 5 kts | 340° |
| 2026-05-06 12:21 | 50.05095 | 8.58850 | 378 ft | 1 kts | 340° |
| 2026-05-06 12:21 | 50.05097 | 8.58849 | 378 ft | 0 kts | 340° |